createdAt,value
2022-08-02T00:00:40.811Z,1006.50
2022-08-02T00:01:26.692Z,1006.40
2022-08-02T00:02:13.119Z,1006.40
2022-08-02T00:02:58.608Z,1006.30
2022-08-02T00:03:44.634Z,1005.99
2022-08-02T00:04:30.637Z,1006.20
2022-08-02T00:05:16.610Z,1006.20
2022-08-02T00:06:02.696Z,1006.20
2022-08-02T00:06:48.631Z,1006.20
2022-08-02T00:07:39.126Z,1005.99
2022-08-02T00:08:20.661Z,1005.99
2022-08-02T00:09:06.688Z,1006.20
2022-08-02T00:09:52.747Z,1006.09
2022-08-02T00:10:39.201Z,1006.20
2022-08-02T00:11:24.892Z,1006.20
2022-08-02T00:12:11.036Z,1006.20
2022-08-02T00:12:56.642Z,1006.20
2022-08-02T00:13:42.651Z,1006.09
2022-08-02T00:14:28.727Z,1006.30
2022-08-02T00:15:16.025Z,1006.30
2022-08-02T00:16:00.743Z,1006.40
2022-08-02T00:16:46.696Z,1006.09
2022-08-02T00:17:32.718Z,1006.09
2022-08-02T00:18:18.684Z,1006.09
2022-08-02T00:19:04.702Z,1006.20
2022-08-02T00:19:50.695Z,1006.20
2022-08-02T00:20:36.704Z,1006.30
2022-08-02T00:21:22.807Z,1006.20
2022-08-02T00:22:09.212Z,1006.20
2022-08-02T00:22:54.718Z,1005.99
2022-08-02T00:24:03.206Z,1006.20
2022-08-02T00:25:12.697Z,1006.20
2022-08-02T00:25:58.696Z,1006.20
2022-08-02T00:26:44.721Z,1006.30
2022-08-02T00:27:30.729Z,1006.09
2022-08-02T00:28:19.527Z,1006.09
2022-08-02T00:29:02.671Z,1006.20
2022-08-02T00:29:52.288Z,1006.20
2022-08-02T00:30:34.807Z,1006.30
2022-08-02T00:31:20.693Z,1006.30
2022-08-02T00:32:06.754Z,1006.20
2022-08-02T00:32:52.758Z,1006.20
2022-08-02T00:34:26.687Z,1006.20
2022-08-02T00:35:10.766Z,1006.30
2022-08-02T00:35:56.724Z,1006.30
2022-08-02T00:36:42.736Z,1006.20
2022-08-02T00:37:28.712Z,1006.30
2022-08-02T00:38:14.772Z,1006.30
2022-08-02T00:39:00.730Z,1006.09
2022-08-02T00:39:46.743Z,1006.09
2022-08-02T00:40:32.738Z,1006.30
2022-08-02T00:41:18.752Z,1006.30
2022-08-02T00:42:04.773Z,1006.50
2022-08-02T00:42:50.729Z,1006.20
2022-08-02T00:43:36.755Z,1006.20
2022-08-02T00:44:22.859Z,1006.40
2022-08-02T00:45:08.849Z,1006.40
2022-08-02T00:46:02.087Z,1006.09
2022-08-02T00:46:41.096Z,1006.50
2022-08-02T00:47:26.758Z,1006.30
2022-08-02T00:48:12.776Z,1006.30
2022-08-02T00:48:58.807Z,1006.20
2022-08-02T00:49:44.793Z,1006.30
2022-08-02T00:50:30.786Z,1006.30
2022-08-02T00:51:16.791Z,1006.30
2022-08-02T00:52:02.788Z,1006.40
2022-08-02T00:52:48.770Z,1006.50
2022-08-02T00:53:34.815Z,1006.20
2022-08-02T00:54:20.769Z,1006.20
2022-08-02T00:55:06.965Z,1006.60
2022-08-02T00:55:52.802Z,1006.30
2022-08-02T00:56:38.845Z,1006.60
2022-08-02T00:57:24.782Z,1006.30
2022-08-02T00:58:10.850Z,1006.30
2022-08-02T00:58:56.815Z,1006.20
2022-08-02T00:59:42.783Z,1006.40
2022-08-02T01:00:29.951Z,1006.30
2022-08-02T01:01:14.888Z,1006.30
2022-08-02T01:02:00.836Z,1006.30
2022-08-02T01:02:46.810Z,1006.20
2022-08-02T01:03:32.785Z,1006.40
2022-08-02T01:04:18.800Z,1006.40
2022-08-02T01:05:04.851Z,1006.20
2022-08-02T01:06:09.086Z,1006.40
2022-08-02T01:06:36.814Z,1006.50
2022-08-02T01:07:22.950Z,1006.40
2022-08-02T01:08:08.870Z,1006.40
2022-08-02T01:08:54.793Z,1006.40
2022-08-02T01:09:41.077Z,1006.40
2022-08-02T01:10:26.834Z,1006.40
2022-08-02T01:11:12.842Z,1006.40
2022-08-02T01:12:02.622Z,1006.50
2022-08-02T01:12:44.840Z,1006.50
2022-08-02T01:13:30.866Z,1006.50
2022-08-02T01:14:16.812Z,1006.50
2022-08-02T01:15:02.908Z,1006.50
2022-08-02T01:15:48.841Z,1006.60
2022-08-02T01:16:34.878Z,1006.40
2022-08-02T01:17:20.810Z,1006.40
2022-08-02T01:18:06.868Z,1006.40
2022-08-02T01:18:52.884Z,1006.40
2022-08-02T01:19:38.969Z,1006.50
2022-08-02T01:20:24.831Z,1006.50
2022-08-02T01:21:10.833Z,1006.50
2022-08-02T01:21:56.841Z,1006.60
2022-08-02T01:23:01.047Z,1006.30
2022-08-02T01:23:28.877Z,1006.60
2022-08-02T01:24:14.890Z,1006.60
2022-08-02T01:25:00.834Z,1006.40
2022-08-02T01:25:46.852Z,1006.30
2022-08-02T01:26:32.871Z,1006.30
2022-08-02T01:27:18.839Z,1006.30
2022-08-02T01:28:04.951Z,1006.50
2022-08-02T01:28:50.852Z,1006.30
2022-08-02T01:29:36.897Z,1006.40
2022-08-02T01:30:22.978Z,1006.30
2022-08-02T01:31:08.871Z,1006.30
2022-08-02T01:31:54.870Z,1006.20
2022-08-02T01:32:40.966Z,1006.30
2022-08-02T01:33:26.913Z,1006.30
2022-08-02T01:34:12.924Z,1006.30
2022-08-02T01:34:58.927Z,1006.30
2022-08-02T01:35:50.698Z,1006.60
2022-08-02T01:36:30.863Z,1006.20
2022-08-02T01:37:16.870Z,1006.20
2022-08-02T01:38:02.865Z,1006.09
2022-08-02T01:38:48.869Z,1006.30
2022-08-02T01:39:34.952Z,1006.20
2022-08-02T01:40:21.273Z,1006.20
2022-08-02T01:41:06.881Z,1006.20
2022-08-02T01:41:58.908Z,1006.30
2022-08-02T01:42:39.002Z,1006.50
2022-08-02T01:43:24.936Z,1006.40
2022-08-02T01:44:10.909Z,1006.40
2022-08-02T01:44:56.889Z,1006.30
2022-08-02T01:45:42.943Z,1006.40
2022-08-02T01:46:28.881Z,1006.30
2022-08-02T01:47:14.946Z,1006.30
2022-08-02T01:48:00.913Z,1006.30
2022-08-02T01:48:46.893Z,1006.30
2022-08-02T01:49:33.017Z,1006.30
2022-08-02T01:50:18.901Z,1006.30
2022-08-02T01:51:04.942Z,1006.30
2022-08-02T01:51:50.935Z,1006.20
2022-08-02T01:52:36.942Z,1006.30
2022-08-02T01:53:23.036Z,1006.40
2022-08-02T01:54:08.968Z,1006.40
2022-08-02T01:54:54.966Z,1006.30
2022-08-02T01:55:58.358Z,1006.40
2022-08-02T01:56:26.961Z,1006.20
2022-08-02T01:57:12.946Z,1006.20
2022-08-02T01:57:58.942Z,1006.50
2022-08-02T01:58:44.967Z,1006.20
2022-08-02T01:59:30.965Z,1006.40
2022-08-02T02:00:17.045Z,1006.40
2022-08-02T02:01:03.025Z,1006.30
2022-08-02T02:01:49.058Z,1006.50
2022-08-02T02:02:35.143Z,1006.20
2022-08-02T02:03:21.005Z,1006.20
2022-08-02T02:04:06.978Z,1006.40
2022-08-02T02:04:53.611Z,1006.60
2022-08-02T02:05:39.126Z,1006.30
2022-08-02T02:06:25.061Z,1006.30
2022-08-02T02:07:10.971Z,1006.30
2022-08-02T02:07:56.949Z,1006.40
2022-08-02T02:08:43.008Z,1006.40
2022-08-02T02:09:29.004Z,1006.40
2022-08-02T02:10:14.946Z,1006.40
2022-08-02T02:12:06.157Z,1006.40
2022-08-02T02:12:33.061Z,1006.50
2022-08-02T02:13:19.036Z,1006.50
2022-08-02T02:14:05.045Z,1006.50
2022-08-02T02:14:52.177Z,1006.40
2022-08-02T02:15:36.394Z,1006.40
2022-08-02T02:16:23.073Z,1006.20
2022-08-02T02:17:09.010Z,1006.20
2022-08-02T02:18:12.630Z,1006.40
2022-08-02T02:18:41.129Z,1006.60
2022-08-02T02:19:27.001Z,1006.40
2022-08-02T02:20:12.985Z,1006.40
2022-08-02T02:20:59.018Z,1006.40
2022-08-02T02:21:45.061Z,1006.30
2022-08-02T02:22:31.044Z,1006.20
2022-08-02T02:23:17.014Z,1006.20
2022-08-02T02:24:03.009Z,1006.20
2022-08-02T02:24:49.014Z,1006.30
2022-08-02T02:25:36.362Z,1006.20
2022-08-02T02:26:31.532Z,1006.20
2022-08-02T02:27:07.107Z,1006.30
2022-08-02T02:27:53.714Z,1006.30
2022-08-02T02:28:39.177Z,1006.50
2022-08-02T02:29:25.025Z,1006.30
2022-08-02T02:30:11.183Z,1006.30
2022-08-02T02:30:57.025Z,1006.30
2022-08-02T02:31:43.026Z,1006.30
2022-08-02T02:32:29.027Z,1006.40
2022-08-02T02:33:15.033Z,1006.40
2022-08-02T02:34:01.378Z,1006.09
2022-08-02T02:34:47.014Z,1006.20
2022-08-02T02:35:33.044Z,1006.40
2022-08-02T02:36:19.035Z,1006.40
2022-08-02T02:37:05.171Z,1006.20
2022-08-02T02:37:51.054Z,1006.20
2022-08-02T02:38:37.076Z,1006.30
2022-08-02T02:39:23.193Z,1006.20
2022-08-02T02:40:09.086Z,1006.20
2022-08-02T02:40:55.104Z,1006.40
2022-08-02T02:41:41.135Z,1006.30
2022-08-02T02:42:27.187Z,1006.40
2022-08-02T02:43:13.060Z,1006.40
2022-08-02T02:43:59.059Z,1006.50
2022-08-02T02:44:45.038Z,1006.20
2022-08-02T02:45:31.182Z,1006.30
2022-08-02T02:46:17.062Z,1006.30
2022-08-02T02:47:03.085Z,1006.40
2022-08-02T02:47:49.039Z,1006.20
2022-08-02T02:48:35.130Z,1006.30
2022-08-02T02:49:21.235Z,1006.30
2022-08-02T02:50:07.115Z,1006.20
2022-08-02T02:50:53.672Z,1006.09
2022-08-02T02:51:39.275Z,1006.40
2022-08-02T02:52:25.083Z,1006.40
2022-08-02T02:53:11.114Z,1006.40
2022-08-02T02:54:30.383Z,1006.30
2022-08-02T02:54:43.093Z,1006.40
2022-08-02T02:55:29.108Z,1006.30
2022-08-02T02:56:15.082Z,1006.30
2022-08-02T02:57:01.078Z,1006.20
2022-08-02T02:57:47.076Z,1006.40
2022-08-02T02:58:33.079Z,1006.40
2022-08-02T02:59:19.142Z,1006.40
2022-08-02T03:00:05.168Z,1006.09
2022-08-02T03:00:51.160Z,1006.30
2022-08-02T03:01:56.823Z,1005.99
2022-08-02T03:02:23.229Z,1006.09
2022-08-02T03:03:09.220Z,1006.09
2022-08-02T03:03:55.137Z,1006.09
2022-08-02T03:04:57.248Z,1006.40
2022-08-02T03:05:27.144Z,1006.09
2022-08-02T03:06:14.826Z,1006.09
2022-08-02T03:06:59.138Z,1006.30
2022-08-02T03:07:45.253Z,1006.30
2022-08-02T03:08:31.107Z,1006.50
2022-08-02T03:09:17.108Z,1006.50
2022-08-02T03:10:03.098Z,1006.30
2022-08-02T03:10:49.181Z,1006.30
2022-08-02T03:11:35.132Z,1006.40
2022-08-02T03:12:21.193Z,1006.40
2022-08-02T03:13:07.096Z,1006.50
2022-08-02T03:13:53.622Z,1006.30
2022-08-02T03:14:39.318Z,1006.40
2022-08-02T03:15:25.230Z,1006.20
2022-08-02T03:16:11.203Z,1006.20
2022-08-02T03:16:57.123Z,1006.40
2022-08-02T03:17:43.178Z,1006.30
2022-08-02T03:18:29.225Z,1006.40
2022-08-02T03:19:15.271Z,1006.40
2022-08-02T03:20:01.265Z,1006.70
2022-08-02T03:20:47.188Z,1006.40
2022-08-02T03:21:33.266Z,1006.09
2022-08-02T03:22:19.259Z,1006.09
2022-08-02T03:23:05.176Z,1006.50
2022-08-02T03:23:51.189Z,1006.40
2022-08-02T03:24:37.135Z,1006.20
2022-08-02T03:25:23.254Z,1006.50
2022-08-02T03:26:09.161Z,1006.50
2022-08-02T03:26:55.150Z,1006.50
2022-08-02T03:27:41.254Z,1006.60
2022-08-02T03:28:27.174Z,1006.40
2022-08-02T03:29:13.155Z,1006.40
2022-08-02T03:29:59.172Z,1006.30
2022-08-02T03:30:45.251Z,1006.30
2022-08-02T03:31:32.843Z,1006.50
2022-08-02T03:32:17.173Z,1006.50
2022-08-02T03:33:03.281Z,1006.30
2022-08-02T03:33:49.202Z,1006.60
2022-08-02T03:34:35.199Z,1006.40
2022-08-02T03:35:24.160Z,1006.40
2022-08-02T03:36:07.190Z,1006.50
2022-08-02T03:36:53.776Z,1006.40
2022-08-02T03:37:39.361Z,1006.40
2022-08-02T03:38:40.571Z,1006.20
2022-08-02T03:39:11.215Z,1006.20
2022-08-02T03:39:57.194Z,1006.30
2022-08-02T03:40:43.267Z,1006.20
2022-08-02T03:41:29.220Z,1006.50
2022-08-02T03:42:15.508Z,1006.50
2022-08-02T03:43:01.196Z,1006.20
2022-08-02T03:43:47.208Z,1006.40
2022-08-02T03:44:33.231Z,1006.20
2022-08-02T03:45:19.300Z,1006.20
2022-08-02T03:46:05.226Z,1006.50
2022-08-02T03:46:51.233Z,1006.30
2022-08-02T03:47:37.211Z,1006.30
2022-08-02T03:48:34.105Z,1006.09
2022-08-02T03:49:09.312Z,1006.09
2022-08-02T03:49:55.296Z,1006.40
2022-08-02T03:50:41.281Z,1006.40
2022-08-02T03:51:27.215Z,1006.40
2022-08-02T03:52:12.986Z,1006.40
2022-08-02T03:52:59.268Z,1006.50
2022-08-02T03:53:45.225Z,1006.60
2022-08-02T03:54:34.530Z,1006.70
2022-08-02T03:55:17.212Z,1006.70
2022-08-02T03:56:03.235Z,1006.40
2022-08-02T03:56:49.258Z,1006.50
2022-08-02T03:57:35.249Z,1006.40
2022-08-02T03:58:21.242Z,1006.40
2022-08-02T03:59:07.250Z,1006.20
2022-08-02T03:59:53.909Z,1006.09
2022-08-02T04:00:39.594Z,1006.30
2022-08-02T04:01:25.401Z,1006.40
2022-08-02T04:02:11.690Z,1006.40
2022-08-02T04:02:57.250Z,1006.40
2022-08-02T04:03:43.280Z,1006.50
2022-08-02T04:04:29.296Z,1006.40
2022-08-02T04:05:15.300Z,1006.40
2022-08-02T04:06:04.053Z,1006.40
2022-08-02T04:06:47.283Z,1006.40
2022-08-02T04:08:36.410Z,1006.40
2022-08-02T04:09:05.334Z,1006.40
2022-08-02T04:09:51.361Z,1006.50
2022-08-02T04:10:37.346Z,1006.40
2022-08-02T04:11:23.440Z,1006.20
2022-08-02T04:12:09.752Z,1006.20
2022-08-02T04:12:55.384Z,1006.20
2022-08-02T04:13:41.372Z,1006.50
2022-08-02T04:14:27.325Z,1006.20
2022-08-02T04:15:13.434Z,1006.20
2022-08-02T04:15:59.408Z,1006.30
2022-08-02T04:16:45.296Z,1006.40
2022-08-02T04:17:31.396Z,1006.09
2022-08-02T04:18:17.344Z,1006.09
2022-08-02T04:19:03.373Z,1006.50
2022-08-02T04:19:49.341Z,1006.40
2022-08-02T04:20:35.443Z,1006.50
2022-08-02T04:21:21.370Z,1006.50
2022-08-02T04:22:07.350Z,1006.30
2022-08-02T04:22:53.797Z,1006.20
2022-08-02T04:23:39.507Z,1006.50
2022-08-02T04:24:25.345Z,1006.40
2022-08-02T04:25:17.210Z,1006.40
2022-08-02T04:25:57.379Z,1006.40
2022-08-02T04:26:43.346Z,1006.50
2022-08-02T04:28:15.492Z,1006.70
2022-08-02T04:29:01.464Z,1006.50
2022-08-02T04:29:47.350Z,1006.40
2022-08-02T04:30:33.521Z,1006.50
2022-08-02T04:31:19.350Z,1006.50
2022-08-02T04:32:05.363Z,1006.30
2022-08-02T04:32:51.434Z,1006.50
2022-08-02T04:33:37.369Z,1006.60
2022-08-02T04:34:23.511Z,1006.50
2022-08-02T04:35:20.690Z,1006.50
2022-08-02T04:35:59.496Z,1006.40
2022-08-02T04:36:41.443Z,1006.30
2022-08-02T04:37:27.369Z,1006.60
2022-08-02T04:38:13.388Z,1006.60
2022-08-02T04:38:59.389Z,1006.50
2022-08-02T04:39:45.403Z,1006.60
2022-08-02T04:40:31.455Z,1006.50
2022-08-02T04:41:17.377Z,1006.50
2022-08-02T04:42:03.428Z,1006.40
2022-08-02T04:42:49.442Z,1006.50
2022-08-02T04:43:35.582Z,1006.60
2022-08-02T04:44:21.474Z,1006.60
2022-08-02T04:45:07.610Z,1006.50
2022-08-02T04:45:54.194Z,1006.60
2022-08-02T04:46:39.495Z,1006.40
2022-08-02T04:48:01.604Z,1006.60
2022-08-02T04:48:11.421Z,1006.60
2022-08-02T04:48:57.424Z,1006.50
2022-08-02T04:49:43.463Z,1006.50
2022-08-02T04:50:29.484Z,1006.50
2022-08-02T04:51:15.534Z,1006.50
2022-08-02T04:52:01.454Z,1006.60
2022-08-02T04:52:47.456Z,1006.60
2022-08-02T04:53:33.485Z,1006.50
2022-08-02T04:54:19.519Z,1006.50
2022-08-02T04:55:05.544Z,1006.50
2022-08-02T04:55:51.501Z,1006.40
2022-08-02T04:56:37.428Z,1006.60
2022-08-02T04:57:23.614Z,1006.60
2022-08-02T04:58:36.977Z,1006.60
2022-08-02T04:58:55.458Z,1006.60
2022-08-02T04:59:41.621Z,1006.70
2022-08-02T05:00:27.688Z,1006.60
2022-08-02T05:01:13.521Z,1006.60
2022-08-02T05:01:59.497Z,1006.70
2022-08-02T05:02:45.460Z,1006.60
2022-08-02T05:03:31.508Z,1006.81
2022-08-02T05:04:17.510Z,1006.81
2022-08-02T05:05:08.237Z,1006.81
2022-08-02T05:05:49.454Z,1006.70
2022-08-02T05:06:35.801Z,1006.70
2022-08-02T05:07:21.452Z,1006.70
2022-08-02T05:08:07.528Z,1006.81
2022-08-02T05:08:54.081Z,1006.91
2022-08-02T05:09:39.556Z,1006.70
2022-08-02T05:10:25.464Z,1006.81
2022-08-02T05:11:11.591Z,1006.81
2022-08-02T05:11:57.481Z,1006.91
2022-08-02T05:12:43.468Z,1006.70
2022-08-02T05:13:29.508Z,1006.70
2022-08-02T05:14:15.519Z,1006.70
2022-08-02T05:15:01.843Z,1006.60
2022-08-02T05:15:47.481Z,1006.91
2022-08-02T05:16:33.553Z,1006.81
2022-08-02T05:17:19.523Z,1006.81
2022-08-02T05:18:05.467Z,1006.81
2022-08-02T05:18:51.492Z,1006.91
2022-08-02T05:19:37.485Z,1007.01
2022-08-02T05:20:23.587Z,1006.91
2022-08-02T05:21:09.567Z,1006.91
2022-08-02T05:21:55.475Z,1006.81
2022-08-02T05:22:41.561Z,1006.81
2022-08-02T05:23:27.510Z,1006.81
2022-08-02T05:24:13.508Z,1006.81
2022-08-02T05:24:59.514Z,1007.01
2022-08-02T05:25:45.501Z,1007.01
2022-08-02T05:26:31.514Z,1006.91
2022-08-02T05:27:21.949Z,1006.91
2022-08-02T05:28:06.086Z,1006.81
2022-08-02T05:28:49.527Z,1006.81
2022-08-02T05:29:35.554Z,1006.81
2022-08-02T05:30:21.705Z,1006.81
2022-08-02T05:31:07.541Z,1006.81
2022-08-02T05:31:54.163Z,1006.81
2022-08-02T05:32:39.590Z,1006.60
2022-08-02T05:33:25.526Z,1006.70
2022-08-02T05:34:12.102Z,1006.70
2022-08-02T05:34:57.514Z,1006.81
2022-08-02T05:35:43.565Z,1006.70
2022-08-02T05:36:29.549Z,1006.70
2022-08-02T05:37:15.580Z,1006.70
2022-08-02T05:38:01.592Z,1006.50
2022-08-02T05:38:49.856Z,1006.81
2022-08-02T05:39:33.526Z,1007.01
2022-08-02T05:40:25.290Z,1007.01
2022-08-02T05:41:05.609Z,1006.60
2022-08-02T05:41:51.535Z,1006.70
2022-08-02T05:42:37.582Z,1006.81
2022-08-02T05:43:24.204Z,1007.01
2022-08-02T05:44:09.705Z,1007.01
2022-08-02T05:44:55.567Z,1006.70
2022-08-02T05:45:41.632Z,1006.81
2022-08-02T05:46:27.559Z,1006.70
2022-08-02T05:47:13.619Z,1006.70
2022-08-02T05:47:59.558Z,1006.60
2022-08-02T05:48:45.692Z,1006.70
2022-08-02T05:49:31.669Z,1006.70
2022-08-02T05:50:17.572Z,1006.70
2022-08-02T05:51:03.576Z,1006.81
2022-08-02T05:51:49.622Z,1006.60
2022-08-02T05:52:35.666Z,1006.81
2022-08-02T05:53:21.609Z,1006.81
2022-08-02T05:54:07.693Z,1006.70
2022-08-02T05:54:54.025Z,1006.70
2022-08-02T05:55:39.736Z,1007.01
2022-08-02T05:56:25.620Z,1006.70
2022-08-02T05:57:11.601Z,1006.70
2022-08-02T05:57:57.625Z,1006.91
2022-08-02T05:58:43.645Z,1006.81
2022-08-02T05:59:29.562Z,1006.81
2022-08-02T06:00:15.708Z,1006.81
2022-08-02T06:01:01.642Z,1006.91
2022-08-02T06:01:47.759Z,1006.91
2022-08-02T06:02:33.644Z,1006.60
2022-08-02T06:03:19.642Z,1006.60
2022-08-02T06:04:05.663Z,1006.81
2022-08-02T06:04:52.966Z,1007.11
2022-08-02T06:05:37.732Z,1007.01
2022-08-02T06:06:23.731Z,1007.01
2022-08-02T06:07:09.710Z,1007.01
2022-08-02T06:07:55.675Z,1006.91
2022-08-02T06:08:44.554Z,1006.91
2022-08-02T06:09:27.623Z,1007.21
2022-08-02T06:10:13.629Z,1007.21
2022-08-02T06:10:59.780Z,1007.21
2022-08-02T06:12:10.904Z,1006.81
2022-08-02T06:12:31.726Z,1007.21
2022-08-02T06:13:17.702Z,1007.21
2022-08-02T06:14:03.821Z,1006.91
2022-08-02T06:14:52.574Z,1007.01
2022-08-02T06:15:38.969Z,1007.21
2022-08-02T06:16:31.681Z,1007.21
2022-08-02T06:17:07.823Z,1007.01
2022-08-02T06:17:54.321Z,1007.11
2022-08-02T06:18:39.860Z,1006.81
2022-08-02T06:19:25.942Z,1007.11
2022-08-02T06:20:11.821Z,1007.11
2022-08-02T06:20:57.766Z,1007.01
2022-08-02T06:22:32.906Z,1006.81
2022-08-02T06:23:15.818Z,1006.60
2022-08-02T06:24:01.824Z,1007.11
2022-08-02T06:24:47.858Z,1007.11
2022-08-02T06:25:50.657Z,1006.91
2022-08-02T06:26:19.831Z,1006.91
2022-08-02T06:27:05.937Z,1006.91
2022-08-02T06:27:51.808Z,1006.91
2022-08-02T06:28:37.801Z,1007.01
2022-08-02T06:29:23.934Z,1006.91
2022-08-02T06:30:09.902Z,1006.91
2022-08-02T06:30:55.829Z,1007.21
2022-08-02T06:31:41.932Z,1007.11
2022-08-02T06:32:27.798Z,1007.01
2022-08-02T06:33:13.870Z,1007.01
2022-08-02T06:33:59.833Z,1007.01
2022-08-02T06:34:45.790Z,1007.11
2022-08-02T06:35:31.828Z,1007.21
2022-08-02T06:36:17.703Z,1007.21
2022-08-02T06:37:03.987Z,1007.11
2022-08-02T06:37:49.839Z,1006.91
2022-08-02T06:38:36.016Z,1006.91
2022-08-02T06:39:21.925Z,1006.91
2022-08-02T06:40:07.942Z,1007.11
2022-08-02T06:40:54.186Z,1007.11
2022-08-02T06:41:40.034Z,1007.01
2022-08-02T06:42:27.477Z,1007.21
2022-08-02T06:43:11.855Z,1007.21
2022-08-02T06:43:57.855Z,1007.11
2022-08-02T06:44:47.981Z,1007.11
2022-08-02T06:45:29.865Z,1007.11
2022-08-02T06:47:09.496Z,1007.11
2022-08-02T06:47:47.873Z,1007.31
2022-08-02T06:48:33.898Z,1007.21
2022-08-02T06:49:20.020Z,1007.21
2022-08-02T06:50:06.109Z,1007.01
2022-08-02T06:50:51.898Z,1007.11
2022-08-02T06:51:37.866Z,1007.21
2022-08-02T06:52:27.897Z,1007.11
2022-08-02T06:53:09.899Z,1007.11
2022-08-02T06:53:55.925Z,1006.91
2022-08-02T06:54:41.875Z,1007.01
2022-08-02T06:55:27.889Z,1007.11
2022-08-02T06:56:13.935Z,1007.11
2022-08-02T06:56:59.906Z,1006.91
2022-08-02T06:57:45.959Z,1007.01
2022-08-02T06:58:31.908Z,1007.01
2022-08-02T06:59:17.888Z,1007.01
2022-08-02T07:00:04.099Z,1007.01
2022-08-02T07:00:49.957Z,1007.11
2022-08-02T07:01:38.683Z,1007.01
2022-08-02T07:02:21.893Z,1007.01
2022-08-02T07:03:08.250Z,1007.11
2022-08-02T07:03:54.188Z,1007.11
2022-08-02T07:04:40.250Z,1007.01
2022-08-02T07:05:25.928Z,1007.21
2022-08-02T07:06:12.004Z,1007.21
2022-08-02T07:06:57.909Z,1007.31
2022-08-02T07:07:43.985Z,1007.01
2022-08-02T07:08:32.989Z,1007.21
2022-08-02T07:09:20.876Z,1007.21
2022-08-02T07:10:02.121Z,1007.31
2022-08-02T07:10:47.938Z,1007.31
2022-08-02T07:11:34.027Z,1007.11
2022-08-02T07:12:20.102Z,1007.11
2022-08-02T07:13:06.018Z,1007.31
2022-08-02T07:13:51.894Z,1007.11
2022-08-02T07:14:37.977Z,1007.21
2022-08-02T07:15:23.376Z,1007.21
2022-08-02T07:16:09.996Z,1007.31
2022-08-02T07:16:56.025Z,1006.91
2022-08-02T07:17:41.925Z,1007.31
2022-08-02T07:18:27.961Z,1007.21
2022-08-02T07:19:14.006Z,1007.21
2022-08-02T07:19:59.951Z,1007.21
2022-08-02T07:20:45.960Z,1007.01
2022-08-02T07:21:57.095Z,1007.01
2022-08-02T07:22:21.153Z,1007.01
2022-08-02T07:23:04.004Z,1007.11
2022-08-02T07:23:49.996Z,1007.01
2022-08-02T07:24:36.159Z,1007.11
2022-08-02T07:25:21.186Z,1007.11
2022-08-02T07:26:08.040Z,1007.11
2022-08-02T07:27:09.866Z,1006.91
2022-08-02T07:27:40.156Z,1006.91
2022-08-02T07:28:26.015Z,1007.11
2022-08-02T07:29:12.073Z,1007.11
2022-08-02T07:29:58.018Z,1007.21
2022-08-02T07:30:44.047Z,1006.91
2022-08-02T07:31:29.977Z,1006.91
2022-08-02T07:32:16.103Z,1006.91
2022-08-02T07:33:02.092Z,1006.91
2022-08-02T07:33:47.973Z,1007.01
2022-08-02T07:34:34.006Z,1007.11
2022-08-02T07:35:20.057Z,1007.11
2022-08-02T07:36:06.097Z,1007.01
2022-08-02T07:36:52.059Z,1006.91
2022-08-02T07:37:55.339Z,1007.01
2022-08-02T07:38:24.171Z,1007.21
2022-08-02T07:39:10.267Z,1007.21
2022-08-02T07:39:56.069Z,1006.91
2022-08-02T07:40:42.105Z,1006.91
2022-08-02T07:41:28.149Z,1006.91
2022-08-02T07:42:14.567Z,1006.91
2022-08-02T07:43:03.861Z,1007.11
2022-08-02T07:43:46.080Z,1007.01
2022-08-02T07:44:32.056Z,1007.21
2022-08-02T07:45:18.057Z,1007.21
2022-08-02T07:46:04.046Z,1007.01
2022-08-02T07:46:50.079Z,1006.91
2022-08-02T07:47:36.158Z,1007.11
2022-08-02T07:48:21.998Z,1007.11
2022-08-02T07:49:08.115Z,1006.91
2022-08-02T07:49:54.300Z,1007.01
2022-08-02T07:50:40.119Z,1007.11
2022-08-02T07:51:26.037Z,1006.70
2022-08-02T07:52:12.522Z,1006.70
2022-08-02T07:52:58.231Z,1006.91
2022-08-02T07:53:50.896Z,1006.91
2022-08-02T07:54:30.105Z,1006.60
2022-08-02T07:55:16.078Z,1006.60
2022-08-02T07:56:02.212Z,1006.91
2022-08-02T07:56:48.067Z,1006.81
2022-08-02T07:57:34.103Z,1007.11
2022-08-02T07:58:20.110Z,1007.11
2022-08-02T07:59:06.177Z,1007.11
2022-08-02T07:59:52.079Z,1007.01
2022-08-02T08:00:38.165Z,1007.01
2022-08-02T08:01:24.182Z,1006.91
2022-08-02T08:02:10.445Z,1006.91
2022-08-02T08:02:58.813Z,1007.11
2022-08-02T08:03:42.175Z,1007.01
2022-08-02T08:04:28.099Z,1006.81
2022-08-02T08:05:14.069Z,1006.81
2022-08-02T08:06:00.124Z,1007.01
2022-08-02T08:06:46.119Z,1006.81
2022-08-02T08:07:32.279Z,1007.01
2022-08-02T08:08:18.088Z,1007.01
2022-08-02T08:09:04.095Z,1007.11
2022-08-02T08:09:50.142Z,1007.01
2022-08-02T08:10:36.245Z,1007.01
2022-08-02T08:11:22.190Z,1007.01
2022-08-02T08:12:08.665Z,1007.11
2022-08-02T08:12:54.386Z,1006.81
2022-08-02T08:13:40.182Z,1007.01
2022-08-02T08:14:26.279Z,1006.81
2022-08-02T08:15:12.231Z,1006.81
2022-08-02T08:15:58.108Z,1006.91
2022-08-02T08:16:44.148Z,1007.11
2022-08-02T08:17:30.130Z,1006.81
2022-08-02T08:18:16.178Z,1006.81
2022-08-02T08:19:02.082Z,1006.81
2022-08-02T08:19:51.620Z,1006.91
2022-08-02T08:20:34.168Z,1007.01
2022-08-02T08:21:20.170Z,1007.01
2022-08-02T08:22:06.320Z,1007.01
2022-08-02T08:22:52.163Z,1006.81
2022-08-02T08:23:38.088Z,1006.91
2022-08-02T08:24:24.255Z,1006.60
2022-08-02T08:25:10.295Z,1006.60
2022-08-02T08:25:56.210Z,1006.91
2022-08-02T08:26:42.387Z,1007.01
2022-08-02T08:27:28.136Z,1006.81
2022-08-02T08:28:14.136Z,1006.81
2022-08-02T08:29:00.192Z,1006.91
2022-08-02T08:29:46.347Z,1006.70
2022-08-02T08:30:32.209Z,1007.01
2022-08-02T08:31:18.152Z,1007.01
2022-08-02T08:32:04.178Z,1006.91
2022-08-02T08:32:50.218Z,1007.01
2022-08-02T08:33:36.323Z,1007.01
2022-08-02T08:34:22.278Z,1007.01
2022-08-02T08:35:08.242Z,1006.91
2022-08-02T08:35:54.369Z,1007.11
2022-08-02T08:36:40.264Z,1006.91
2022-08-02T08:37:26.177Z,1007.01
2022-08-02T08:38:12.263Z,1007.01
2022-08-02T08:38:58.168Z,1007.11
2022-08-02T08:39:56.739Z,1007.11
2022-08-02T08:40:30.188Z,1006.81
2022-08-02T08:41:16.219Z,1006.81
2022-08-02T08:42:02.208Z,1006.91
2022-08-02T08:42:48.226Z,1006.81
2022-08-02T08:43:34.194Z,1006.70
2022-08-02T08:44:20.293Z,1006.70
2022-08-02T08:45:06.360Z,1007.01
2022-08-02T08:45:55.913Z,1006.91
2022-08-02T08:46:39.143Z,1007.01
2022-08-02T08:47:24.296Z,1007.11
2022-08-02T08:48:10.223Z,1007.11
2022-08-02T08:48:56.242Z,1007.11
2022-08-02T08:49:52.604Z,1006.91
2022-08-02T08:50:28.186Z,1006.91
2022-08-02T08:51:14.221Z,1006.91
2022-08-02T08:52:00.232Z,1007.11
2022-08-02T08:52:46.289Z,1007.11
2022-08-02T08:53:36.923Z,1007.31
2022-08-02T08:54:18.437Z,1007.31
2022-08-02T08:55:04.285Z,1007.11
2022-08-02T08:55:50.246Z,1007.11
2022-08-02T08:56:36.373Z,1007.01
2022-08-02T08:57:22.223Z,1007.01
2022-08-02T08:58:08.366Z,1007.11
2022-08-02T08:58:54.244Z,1006.91
2022-08-02T08:59:40.373Z,1007.21
2022-08-02T09:00:26.295Z,1006.91
2022-08-02T09:01:12.373Z,1006.91
2022-08-02T09:01:58.261Z,1007.11
2022-08-02T09:02:44.218Z,1007.21
2022-08-02T09:03:34.102Z,1007.11
2022-08-02T09:04:16.255Z,1007.11
2022-08-02T09:05:02.467Z,1006.91
2022-08-02T09:05:48.237Z,1007.11
2022-08-02T09:06:34.269Z,1006.91
2022-08-02T09:07:20.292Z,1006.91
2022-08-02T09:08:06.318Z,1007.01
2022-08-02T09:08:52.219Z,1006.81
2022-08-02T09:09:38.403Z,1006.70
2022-08-02T09:10:24.352Z,1006.91
2022-08-02T09:11:10.385Z,1006.91
2022-08-02T09:11:56.271Z,1006.70
2022-08-02T09:12:42.450Z,1007.01
2022-08-02T09:13:39.018Z,1006.91
2022-08-02T09:14:14.182Z,1006.91
2022-08-02T09:15:00.221Z,1006.91
2022-08-02T09:15:51.250Z,1006.91
2022-08-02T09:16:32.221Z,1006.91
2022-08-02T09:17:18.174Z,1006.91
2022-08-02T09:18:04.154Z,1006.81
2022-08-02T09:18:50.237Z,1006.70
2022-08-02T09:19:36.390Z,1006.91
2022-08-02T09:20:22.187Z,1006.91
2022-08-02T09:21:08.229Z,1007.01
2022-08-02T09:21:54.262Z,1006.81